TimeEDT,TemperatureF,Dew PointF,Humidity,Sea Level PressureIn,VisibilityMPH,Wind Direction,Wind SpeedMPH,Gust SpeedMPH,PrecipitationIn,Events,Conditions,WindDirDegrees,DateUTC
12:53 AM,57.0,55.0,93,30.09,5.0,WSW,10.4,-,N/A,,Clear,240,2013-05-31 04:53:00
1:53 AM,57.9,55.9,93,30.09,5.0,SW,11.5,-,N/A,,Clear,230,2013-05-31 05:53:00
2:53 AM,57.9,55.0,90,30.08,6.0,WSW,11.5,-,N/A,,Clear,250,2013-05-31 06:53:00
3:53 AM,57.9,55.0,90,30.07,7.0,WSW,9.2,-,N/A,,Clear,250,2013-05-31 07:53:00
4:53 AM,57.9,55.0,90,30.08,7.0,West,8.1,-,N/A,,Clear,260,2013-05-31 08:53:00
5:53 AM,59.0,55.9,90,30.09,7.0,West,6.9,-,N/A,,Clear,260,2013-05-31 09:53:00
6:53 AM,62.1,57.0,84,30.10,8.0,West,5.8,-,N/A,,Clear,260,2013-05-31 10:53:00
7:53 AM,66.0,59.0,78,30.11,7.0,WSW,6.9,-,N/A,,Clear,250,2013-05-31 11:53:00
8:53 AM,64.9,57.9,78,30.11,7.0,SW,8.1,-,N/A,,Clear,220,2013-05-31 12:53:00
9:53 AM,68.0,57.9,70,30.10,8.0,SW,8.1,-,N/A,,Clear,220,2013-05-31 13:53:00
10:53 AM,66.9,57.9,73,30.10,8.0,SW,10.4,-,N/A,,Clear,220,2013-05-31 14:53:00
11:53 AM,68.0,57.9,70,30.09,8.0,SW,8.1,-,N/A,,Clear,220,2013-05-31 15:53:00
12:53 PM,68.0,57.9,70,30.09,9.0,SW,10.4,-,N/A,,Clear,220,2013-05-31 16:53:00
1:53 PM,66.9,57.9,73,30.08,8.0,SW,12.7,-,N/A,,Clear,220,2013-05-31 17:53:00
2:53 PM,66.0,57.9,75,30.06,9.0,SW,15.0,-,N/A,,Clear,220,2013-05-31 18:53:00
3:53 PM,64.9,57.9,78,30.06,8.0,SW,15.0,-,N/A,,Clear,230,2013-05-31 19:53:00
4:53 PM,64.9,57.9,78,30.05,7.0,SW,12.7,-,N/A,,Clear,230,2013-05-31 20:53:00
5:53 PM,63.0,57.9,84,30.04,7.0,SW,11.5,-,N/A,,Clear,230,2013-05-31 21:53:00
6:53 PM,61.0,57.0,87,30.02,6.0,SW,9.2,-,N/A,,Clear,230,2013-05-31 22:53:00
7:53 PM,61.0,57.0,87,30.01,6.0,SW,12.7,-,N/A,,Clear,230,2013-05-31 23:53:00
8:53 PM,60.1,55.9,86,30.03,8.0,WSW,11.5,-,N/A,,Clear,240,2013-06-01 00:53:00
9:53 PM,60.1,55.9,86,30.04,8.0,WSW,11.5,-,N/A,,Clear,240,2013-06-01 01:53:00
10:53 PM,59.0,55.9,90,30.04,8.0,WSW,12.7,-,N/A,,Clear,250,2013-06-01 02:53:00
11:53 PM,57.9,55.0,90,30.05,6.0,SW,9.2,-,N/A,,Clear,230,2013-06-01 03:53:00